createdAt,value
2019-02-18T00:01:52.976Z,9.78
2019-02-18T00:04:17.447Z,9.75
2019-02-18T00:06:41.874Z,9.57
2019-02-18T00:09:06.415Z,9.66
2019-02-18T00:11:30.922Z,9.65
2019-02-18T00:13:55.352Z,9.74
2019-02-18T00:16:19.776Z,9.69
2019-02-18T00:18:44.186Z,9.68
2019-02-18T00:21:08.603Z,9.68
2019-02-18T00:23:33.012Z,9.60
2019-02-18T00:25:57.438Z,9.58
2019-02-18T00:28:21.850Z,9.65
2019-02-18T00:30:46.252Z,9.71
2019-02-18T00:33:10.687Z,9.53
2019-02-18T00:35:35.082Z,9.76
2019-02-18T00:37:59.489Z,9.84
2019-02-18T00:40:23.990Z,9.95
2019-02-18T00:42:48.384Z,9.95
2019-02-18T00:45:13.717Z,9.72
2019-02-18T00:47:38.153Z,9.88
2019-02-18T00:50:02.562Z,9.86
2019-02-18T00:52:26.981Z,9.99
2019-02-18T00:54:51.388Z,9.91
2019-02-18T00:57:15.786Z,9.95
2019-02-18T00:59:40.229Z,9.97
2019-02-18T01:02:04.762Z,9.91
2019-02-18T01:04:29.343Z,9.93
2019-02-18T01:06:53.762Z,9.88
2019-02-18T01:09:18.250Z,9.85
2019-02-18T01:11:42.643Z,9.95
2019-02-18T01:14:07.070Z,9.94
2019-02-18T01:16:31.562Z,9.87
2019-02-18T01:18:55.987Z,9.80
2019-02-18T01:21:20.396Z,9.89
2019-02-18T01:23:44.825Z,9.87
2019-02-18T01:26:09.309Z,9.78
2019-02-18T01:28:33.714Z,9.41
2019-02-18T01:30:58.129Z,9.66
2019-02-18T01:33:22.561Z,9.71
2019-02-18T01:35:46.979Z,9.63
2019-02-18T01:38:11.396Z,9.55
2019-02-18T01:40:35.815Z,9.62
2019-02-18T01:43:00.222Z,9.58
2019-02-18T01:45:25.182Z,9.52
2019-02-18T01:47:49.578Z,9.58
2019-02-18T01:50:15.244Z,9.56
2019-02-18T01:52:39.722Z,9.54
2019-02-18T01:55:04.687Z,9.51
2019-02-18T01:57:29.115Z,9.34
2019-02-18T01:59:53.604Z,9.48
2019-02-18T02:02:18.009Z,9.39
2019-02-18T02:04:42.427Z,9.30
2019-02-18T02:07:06.931Z,9.12
2019-02-18T02:09:31.333Z,8.82
2019-02-18T02:11:55.777Z,9.01
2019-02-18T02:14:20.233Z,8.92
2019-02-18T02:16:44.662Z,8.80
2019-02-18T02:19:09.056Z,8.59
2019-02-18T02:21:33.497Z,8.75
2019-02-18T02:23:57.902Z,8.58
2019-02-18T02:26:22.311Z,8.65
2019-02-18T02:28:46.713Z,8.61
2019-02-18T02:31:11.145Z,8.50
2019-02-18T02:33:35.551Z,8.25
2019-02-18T02:35:59.947Z,8.27
2019-02-18T02:38:24.383Z,8.14
2019-02-18T02:40:48.772Z,8.11
2019-02-18T02:43:13.290Z,8.37
2019-02-18T02:45:37.788Z,8.30
2019-02-18T02:48:02.231Z,8.23
2019-02-18T02:50:26.649Z,8.03
2019-02-18T02:52:51.084Z,8.20
2019-02-18T02:55:15.476Z,8.01
2019-02-18T02:57:39.892Z,8.15
2019-02-18T03:00:12.980Z,8.11
2019-02-18T03:02:37.377Z,8.21
2019-02-18T03:05:01.801Z,8.12
2019-02-18T03:07:26.212Z,8.23
2019-02-18T03:09:50.619Z,7.92
2019-02-18T03:12:15.031Z,8.04
2019-02-18T03:14:39.473Z,8.05
2019-02-18T03:17:03.880Z,7.79
2019-02-18T03:19:28.301Z,8.11
2019-02-18T03:21:52.695Z,8.29
2019-02-18T03:24:17.142Z,8.24
2019-02-18T03:26:41.555Z,8.22
2019-02-18T03:29:31.104Z,8.23
2019-02-18T03:31:55.534Z,8.22
2019-02-18T03:34:32.048Z,8.23
2019-02-18T03:36:56.449Z,8.27
2019-02-18T03:39:20.883Z,8.07
2019-02-18T03:41:45.291Z,8.09
2019-02-18T03:44:09.702Z,8.02
2019-02-18T03:46:34.150Z,7.96
2019-02-18T03:48:58.551Z,8.00
2019-02-18T03:51:22.968Z,7.95
2019-02-18T03:53:47.432Z,7.78
2019-02-18T03:56:11.868Z,7.74
2019-02-18T03:58:36.346Z,7.68
2019-02-18T04:01:00.903Z,7.74
2019-02-18T04:03:25.402Z,7.62
2019-02-18T04:05:49.808Z,7.49
2019-02-18T04:08:14.215Z,7.65
2019-02-18T04:10:38.610Z,7.48
2019-02-18T04:13:03.116Z,7.40
2019-02-18T04:15:27.519Z,7.45
2019-02-18T04:17:51.952Z,7.37
2019-02-18T04:20:16.372Z,7.38
2019-02-18T04:22:40.814Z,7.41
2019-02-18T04:25:06.787Z,7.16
2019-02-18T04:27:31.191Z,6.90
2019-02-18T04:29:55.631Z,6.92
2019-02-18T04:32:20.048Z,7.09
2019-02-18T04:34:44.455Z,6.94
2019-02-18T04:37:08.857Z,7.05
2019-02-18T04:39:33.367Z,6.93
2019-02-18T04:41:57.764Z,7.16
2019-02-18T04:44:22.196Z,7.01
2019-02-18T04:46:46.593Z,7.14
2019-02-18T04:49:11.030Z,6.91
2019-02-18T04:51:35.450Z,7.06
2019-02-18T04:53:59.886Z,6.76
2019-02-18T04:56:24.319Z,6.80
2019-02-18T04:58:48.704Z,6.86
2019-02-18T05:01:13.141Z,6.95
2019-02-18T05:03:37.540Z,6.79
2019-02-18T05:06:01.973Z,6.84
2019-02-18T05:08:26.387Z,7.00
2019-02-18T05:10:50.802Z,6.79
2019-02-18T05:13:15.202Z,6.68
2019-02-18T05:15:40.382Z,6.77
2019-02-18T05:18:05.132Z,6.62
2019-02-18T05:20:29.530Z,6.71
2019-02-18T05:22:53.968Z,6.84
2019-02-18T05:25:18.420Z,6.92
2019-02-18T05:27:42.859Z,6.73
2019-02-18T05:30:09.897Z,6.83
2019-02-18T05:32:34.327Z,6.88
2019-02-18T05:34:58.738Z,6.84
2019-02-18T05:37:23.173Z,6.77
2019-02-18T05:39:47.582Z,6.77
2019-02-18T05:42:11.989Z,6.44
2019-02-18T05:44:36.407Z,6.79
2019-02-18T05:47:00.821Z,6.78
2019-02-18T05:49:25.249Z,6.64
2019-02-18T05:51:49.648Z,6.51
2019-02-18T05:54:14.093Z,6.68
2019-02-18T05:56:38.511Z,6.75
2019-02-18T05:59:02.999Z,6.87
2019-02-18T06:01:27.440Z,6.68
2019-02-18T06:03:51.860Z,6.72
2019-02-18T06:06:16.258Z,6.52
2019-02-18T06:08:40.699Z,6.75
2019-02-18T06:11:05.128Z,6.71
2019-02-18T06:13:29.587Z,6.75
2019-02-18T06:15:53.994Z,6.80
2019-02-18T06:18:18.422Z,6.77
2019-02-18T06:20:42.865Z,6.86
2019-02-18T06:23:07.358Z,6.96
2019-02-18T06:25:31.868Z,6.87
2019-02-18T06:27:56.289Z,6.86
2019-02-18T06:30:20.721Z,6.89
2019-02-18T06:32:45.156Z,7.07
2019-02-18T06:35:09.734Z,6.91
2019-02-18T06:37:34.143Z,6.95
2019-02-18T06:39:58.591Z,6.73
2019-02-18T06:42:23.008Z,6.93
2019-02-18T06:44:49.100Z,6.96
2019-02-18T06:47:13.530Z,7.11
2019-02-18T06:49:37.943Z,7.21
2019-02-18T06:52:02.463Z,6.87
2019-02-18T06:54:26.885Z,7.12
2019-02-18T06:56:52.957Z,7.02
2019-02-18T06:59:21.956Z,7.03
2019-02-18T07:01:59.964Z,7.18
2019-02-18T07:04:28.718Z,6.86
2019-02-18T07:07:06.729Z,6.82
2019-02-18T07:09:51.203Z,7.09
2019-02-18T07:12:15.393Z,6.84
2019-02-18T07:14:39.803Z,6.87
2019-02-18T07:17:04.246Z,6.48
2019-02-18T07:19:28.750Z,6.92
2019-02-18T07:21:53.200Z,7.09
2019-02-18T07:24:17.618Z,7.13
2019-02-18T07:26:42.041Z,7.16
2019-02-18T07:29:06.552Z,7.11
2019-02-18T07:31:30.971Z,7.00
2019-02-18T07:33:55.426Z,7.29
2019-02-18T07:36:19.879Z,7.28
2019-02-18T07:38:44.277Z,7.17
2019-02-18T07:41:08.681Z,7.20
2019-02-18T07:43:33.131Z,7.39
2019-02-18T07:45:57.561Z,7.48
2019-02-18T07:48:22.098Z,7.37
2019-02-18T07:50:46.506Z,7.47
2019-02-18T07:53:10.945Z,7.53
2019-02-18T07:55:35.363Z,7.45
2019-02-18T07:57:59.806Z,7.35
2019-02-18T08:00:24.302Z,7.52
2019-02-18T08:02:48.816Z,7.76
2019-02-18T08:05:13.225Z,7.55
2019-02-18T08:07:37.631Z,7.48
2019-02-18T08:10:11.481Z,7.29
2019-02-18T08:12:28.246Z,7.89
2019-02-18T08:14:52.691Z,7.94
2019-02-18T08:17:17.110Z,7.81
2019-02-18T08:19:41.549Z,7.95
2019-02-18T08:22:06.005Z,8.08
2019-02-18T08:24:30.446Z,8.16
2019-02-18T08:26:54.863Z,8.28
2019-02-18T08:29:19.254Z,8.27
2019-02-18T08:31:43.670Z,8.25
2019-02-18T08:34:08.086Z,8.41
2019-02-18T08:36:32.487Z,8.38
2019-02-18T08:38:56.900Z,8.53
2019-02-18T08:41:21.294Z,8.72
2019-02-18T08:43:45.701Z,8.75
2019-02-18T08:46:10.097Z,8.74
2019-02-18T08:48:34.524Z,8.76
2019-02-18T08:50:58.906Z,8.89
2019-02-18T08:53:23.290Z,8.99
2019-02-18T08:55:47.711Z,9.21
2019-02-18T08:58:12.096Z,8.99
2019-02-18T09:00:36.632Z,8.94
2019-02-18T09:03:01.038Z,9.07
2019-02-18T09:05:25.481Z,9.11
2019-02-18T09:07:49.892Z,9.40
2019-02-18T09:10:15.258Z,9.41
2019-02-18T09:12:39.666Z,9.53
2019-02-18T09:15:14.345Z,9.69
2019-02-18T09:17:44.006Z,9.63
2019-02-18T09:23:24.841Z,9.84
2019-02-18T09:28:25.147Z,10.08
2019-02-18T09:33:25.517Z,10.40
2019-02-18T09:35:50.038Z,10.38
2019-02-18T09:38:24.365Z,10.58
2019-02-18T09:40:58.571Z,10.81
2019-02-18T09:46:01.031Z,11.01
2019-02-18T09:48:25.589Z,11.07
2019-02-18T09:50:50.046Z,11.13
2019-02-18T09:53:14.475Z,11.00
2019-02-18T09:55:38.988Z,11.11
2019-02-18T09:58:03.387Z,11.49
2019-02-18T10:00:27.801Z,11.58
2019-02-18T10:05:28.857Z,11.84
2019-02-18T10:07:53.300Z,11.94
2019-02-18T10:10:31.834Z,12.40
2019-02-18T10:15:45.589Z,12.47
2019-02-18T10:18:10.084Z,12.95
2019-02-18T10:20:34.761Z,12.80
2019-02-18T10:22:59.219Z,12.83
2019-02-18T10:27:59.492Z,13.59
2019-02-18T10:30:23.876Z,13.55
2019-02-18T10:33:00.298Z,13.83
2019-02-18T10:38:01.162Z,13.71
2019-02-18T10:40:25.574Z,14.15
2019-02-18T10:45:26.860Z,14.58
2019-02-18T10:47:51.281Z,14.62
2019-02-18T10:50:15.760Z,14.29
2019-02-18T10:52:40.269Z,14.81
2019-02-18T10:55:19.668Z,14.71
2019-02-18T10:57:44.094Z,15.54
2019-02-18T11:00:28.326Z,15.65
2019-02-18T11:02:52.749Z,15.98
2019-02-18T11:05:17.229Z,16.24
2019-02-18T11:07:41.673Z,16.38
2019-02-18T11:13:03.435Z,16.87
2019-02-18T11:15:27.874Z,17.61
2019-02-18T11:23:05.015Z,17.13
2019-02-18T11:25:29.513Z,17.91
2019-02-18T11:27:53.961Z,18.13
2019-02-18T11:33:15.754Z,19.07
2019-02-18T11:43:36.510Z,24.34
2019-02-18T11:46:00.916Z,24.27
2019-02-18T11:51:01.823Z,25.90
2019-02-18T11:53:26.278Z,25.90
2019-02-18T11:55:50.691Z,26.89
2019-02-18T11:58:15.271Z,26.55
2019-02-18T12:00:39.757Z,26.70
2019-02-18T12:08:11.487Z,28.28
2019-02-18T12:10:35.902Z,27.52
2019-02-18T12:13:00.320Z,27.56
2019-02-18T12:18:00.316Z,27.69
2019-02-18T12:23:01.181Z,30.84
2019-02-18T12:28:01.956Z,30.98
2019-02-18T12:30:26.457Z,30.91
2019-02-18T12:35:30.858Z,31.52
2019-02-18T12:37:57.997Z,32.26
2019-02-18T12:40:22.451Z,31.96
2019-02-18T12:47:58.934Z,32.42
2019-02-18T12:50:23.370Z,33.81
2019-02-18T12:52:58.477Z,33.77
2019-02-18T12:55:23.089Z,33.78
2019-02-18T12:57:59.800Z,31.82
2019-02-18T13:03:00.276Z,30.86
2019-02-18T13:05:24.718Z,30.35
2019-02-18T13:07:49.211Z,30.83
2019-02-18T13:12:49.874Z,33.67
2019-02-18T13:18:11.736Z,31.02
2019-02-18T13:20:36.180Z,34.41
2019-02-18T13:25:36.472Z,33.30
2019-02-18T13:28:08.289Z,34.05
2019-02-18T13:30:32.750Z,34.18
2019-02-18T13:32:57.221Z,34.81
2019-02-18T13:35:21.741Z,36.91
2019-02-18T13:37:46.155Z,36.88
2019-02-18T13:43:07.875Z,35.69
2019-02-18T13:48:08.781Z,35.34
2019-02-18T13:50:33.372Z,33.57
2019-02-18T13:52:57.782Z,34.81
2019-02-18T14:03:14.413Z,34.58
2019-02-18T14:08:15.639Z,36.41
2019-02-18T14:10:40.140Z,33.58
2019-02-18T14:13:04.675Z,35.60
2019-02-18T14:15:29.276Z,35.68
2019-02-18T14:17:54.151Z,35.50
2019-02-18T14:20:18.810Z,34.23
2019-02-18T14:22:43.382Z,35.12
2019-02-18T14:27:54.519Z,35.22
2019-02-18T14:33:16.257Z,35.85
2019-02-18T14:35:40.834Z,37.33
2019-02-18T14:38:05.397Z,35.45
2019-02-18T14:43:05.903Z,36.51
2019-02-18T14:45:30.383Z,34.81
2019-02-18T14:47:54.870Z,36.23
2019-02-18T14:50:19.517Z,35.41
2019-02-18T14:52:51.545Z,36.60
2019-02-18T14:57:52.194Z,36.62
2019-02-18T15:03:14.063Z,35.16
2019-02-18T15:05:38.542Z,32.39
2019-02-18T15:10:44.982Z,34.88
2019-02-18T15:13:09.415Z,34.12
2019-02-18T15:15:33.883Z,33.89
2019-02-18T15:17:58.606Z,33.72
2019-02-18T15:20:23.023Z,32.96
2019-02-18T15:22:52.798Z,29.09
2019-02-18T15:25:17.201Z,28.18
2019-02-18T15:27:41.669Z,27.72
2019-02-18T15:30:26.879Z,29.97
2019-02-18T15:33:22.452Z,28.45
2019-02-18T15:38:23.566Z,26.41
2019-02-18T15:46:03.254Z,26.23
2019-02-18T15:48:48.489Z,24.77
2019-02-18T15:51:32.380Z,24.28
2019-02-18T15:53:56.808Z,23.68
2019-02-18T15:56:21.280Z,23.82
2019-02-18T15:58:45.820Z,23.22
2019-02-18T16:01:10.324Z,22.92
2019-02-18T16:03:34.732Z,22.53
2019-02-18T16:05:59.146Z,22.70
2019-02-18T16:08:23.560Z,21.88
2019-02-18T16:10:48.258Z,21.85
2019-02-18T16:13:12.659Z,21.70
2019-02-18T16:15:37.085Z,21.69
2019-02-18T16:18:01.484Z,21.51
2019-02-18T16:20:25.916Z,21.27
2019-02-18T16:22:50.338Z,21.09
2019-02-18T16:28:11.743Z,20.85
2019-02-18T16:30:36.166Z,20.66
2019-02-18T16:33:00.596Z,20.59
2019-02-18T16:35:45.775Z,20.52
2019-02-18T16:38:10.198Z,20.30
2019-02-18T16:40:34.616Z,20.33
2019-02-18T16:45:35.950Z,19.72
2019-02-18T16:50:43.642Z,19.56
2019-02-18T16:53:08.058Z,19.24
2019-02-18T16:55:32.811Z,19.13
2019-02-18T16:57:57.253Z,19.29
2019-02-18T17:02:57.055Z,18.98
2019-02-18T17:05:21.517Z,18.65
2019-02-18T17:07:45.947Z,18.55
2019-02-18T17:10:10.432Z,18.55
2019-02-18T17:12:34.877Z,18.53
2019-02-18T17:14:59.586Z,18.18
2019-02-18T17:20:20.812Z,17.93
2019-02-18T17:22:45.317Z,17.56
2019-02-18T17:25:29.128Z,17.37
2019-02-18T17:27:53.567Z,17.31
2019-02-18T17:30:17.974Z,17.52
2019-02-18T17:32:42.398Z,17.25
2019-02-18T17:38:03.334Z,17.15
2019-02-18T17:40:27.827Z,17.19
2019-02-18T17:42:52.340Z,17.22
2019-02-18T17:45:36.090Z,16.92
2019-02-18T17:48:00.536Z,17.06
2019-02-18T17:50:25.026Z,17.06
2019-02-18T17:52:49.436Z,16.88
2019-02-18T17:58:10.889Z,16.36
2019-02-18T18:03:10.585Z,16.50
2019-02-18T18:05:35.018Z,16.29
2019-02-18T18:07:59.615Z,16.09
2019-02-18T18:15:36.352Z,16.09
2019-02-18T18:18:00.777Z,16.23
2019-02-18T18:20:25.214Z,15.94
2019-02-18T18:22:56.655Z,15.50
2019-02-18T18:25:21.103Z,15.53
2019-02-18T18:27:45.598Z,15.54
2019-02-18T18:33:06.981Z,15.58
2019-02-18T18:35:51.943Z,15.71
2019-02-18T18:40:52.273Z,15.12
2019-02-18T18:43:16.710Z,15.31
2019-02-18T18:45:41.163Z,15.11
2019-02-18T18:48:05.840Z,15.06
2019-02-18T18:53:06.305Z,14.85
2019-02-18T18:55:30.775Z,14.80
2019-02-18T18:57:55.192Z,14.50
2019-02-18T19:00:40.426Z,14.32
2019-02-18T19:08:20.049Z,13.88
2019-02-18T19:10:44.493Z,14.15
2019-02-18T19:13:10.779Z,13.89
2019-02-18T19:15:49.244Z,13.70
2019-02-18T19:18:12.187Z,13.89
2019-02-18T19:20:36.709Z,13.75
2019-02-18T19:23:01.119Z,13.85
2019-02-18T19:25:37.670Z,13.94
2019-02-18T19:28:02.096Z,13.89
2019-02-18T19:38:36.367Z,14.18
2019-02-18T19:41:00.821Z,14.04
2019-02-18T19:43:25.294Z,14.13
2019-02-18T19:48:25.992Z,13.90
2019-02-18T19:50:50.569Z,13.97
2019-02-18T19:53:15.115Z,13.87
2019-02-18T19:55:39.810Z,13.35
2019-02-18T19:58:04.384Z,13.07
2019-02-18T20:00:28.908Z,13.27
2019-02-18T20:02:53.510Z,13.12
2019-02-18T20:10:30.992Z,13.08
2019-02-18T20:12:55.500Z,12.77
2019-02-18T20:15:19.926Z,12.72
2019-02-18T20:17:44.490Z,12.39
2019-02-18T20:23:05.578Z,11.16
2019-02-18T20:25:30.027Z,11.15
2019-02-18T20:27:54.522Z,11.67
2019-02-18T20:30:19.028Z,11.76
2019-02-18T20:32:43.529Z,11.78
2019-02-18T20:40:41.073Z,11.48
2019-02-18T20:43:05.477Z,11.40
2019-02-18T20:45:29.980Z,11.25
2019-02-18T20:47:54.430Z,11.25
2019-02-18T20:50:19.054Z,11.35
2019-02-18T20:52:43.470Z,11.35
2019-02-18T20:58:05.085Z,11.15
2019-02-18T21:00:29.515Z,11.39
2019-02-18T21:02:54.021Z,11.11
2019-02-18T21:05:18.528Z,11.37
2019-02-18T21:07:43.018Z,11.47
2019-02-18T21:10:28.558Z,11.29
2019-02-18T21:12:53.055Z,11.43
2019-02-18T21:15:17.687Z,11.51
2019-02-18T21:17:42.186Z,11.45
2019-02-18T21:23:03.879Z,11.48
2019-02-18T21:30:41.181Z,11.61
2019-02-18T21:33:05.847Z,12.18
2019-02-18T21:35:30.373Z,12.30
2019-02-18T21:37:54.880Z,11.91
2019-02-18T21:40:19.309Z,12.01
2019-02-18T21:42:43.841Z,12.01
2019-02-18T21:48:05.725Z,12.20
2019-02-18T21:50:30.102Z,12.26
2019-02-18T21:52:54.518Z,12.33
2019-02-18T21:55:19.028Z,12.25
2019-02-18T21:57:43.544Z,11.86
2019-02-18T22:03:04.900Z,11.79
2019-02-18T22:05:29.309Z,11.96
2019-02-18T22:08:00.408Z,11.83
2019-02-18T22:10:31.158Z,11.68
2019-02-18T22:15:31.665Z,11.93
2019-02-18T22:17:56.186Z,11.37
2019-02-18T22:20:20.938Z,11.60
2019-02-18T22:22:52.339Z,11.67
2019-02-18T22:25:29.266Z,11.89
2019-02-18T22:30:29.929Z,11.58
2019-02-18T22:33:01.960Z,11.59
2019-02-18T22:35:26.357Z,11.60
2019-02-18T22:37:50.772Z,11.67
2019-02-18T22:40:26.433Z,11.65
2019-02-18T22:45:27.163Z,11.43
2019-02-18T22:50:34.547Z,11.47
2019-02-18T22:52:58.957Z,11.61
2019-02-18T22:55:23.354Z,11.61
2019-02-18T22:57:47.842Z,11.59
2019-02-18T23:00:52.488Z,11.44
2019-02-18T23:03:16.990Z,11.45
2019-02-18T23:05:41.498Z,11.46
2019-02-18T23:08:05.918Z,11.16
2019-02-18T23:13:13.029Z,11.07
2019-02-18T23:15:37.473Z,11.00
2019-02-18T23:18:01.912Z,11.09
2019-02-18T23:20:26.363Z,11.02
2019-02-18T23:28:02.955Z,10.62
2019-02-18T23:30:27.381Z,10.74
2019-02-18T23:35:35.313Z,10.62
2019-02-18T23:37:59.800Z,10.83
2019-02-18T23:40:24.217Z,10.78
2019-02-18T23:42:59.867Z,10.76
2019-02-18T23:45:24.287Z,10.70
2019-02-18T23:47:48.710Z,11.04
2019-02-18T23:50:13.129Z,10.83
2019-02-18T23:52:37.537Z,10.49
2019-02-18T23:55:01.971Z,9.88
2019-02-18T23:57:26.372Z,10.51
2019-02-18T23:59:50.792Z,10.23
